sensor_id;sensor_type;location;lat;lon;timestamp;P1;durP1;ratioP1;P2;durP2;ratioP2
15285;SDS011;7744;52.172;10.668;2023-04-08T00:01:41;11.23;;;8.67;;
15285;SDS011;7744;52.172;10.668;2023-04-08T00:04:06;10.10;;;8.10;;
15285;SDS011;7744;52.172;10.668;2023-04-08T00:06:33;10.93;;;8.93;;
15285;SDS011;7744;52.172;10.668;2023-04-08T00:08:59;11.03;;;8.87;;
15285;SDS011;7744;52.172;10.668;2023-04-08T00:11:25;11.73;;;9.43;;
15285;SDS011;7744;52.172;10.668;2023-04-08T00:13:50;10.83;;;8.87;;
15285;SDS011;7744;52.172;10.668;2023-04-08T00:16:16;9.63;;;8.30;;
15285;SDS011;7744;52.172;10.668;2023-04-08T00:18:41;8.87;;;7.80;;
15285;SDS011;7744;52.172;10.668;2023-04-08T00:21:07;10.97;;;8.27;;
15285;SDS011;7744;52.172;10.668;2023-04-08T00:23:33;9.47;;;8.33;;
15285;SDS011;7744;52.172;10.668;2023-04-08T00:25:58;10.47;;;8.07;;
15285;SDS011;7744;52.172;10.668;2023-04-08T00:28:24;10.37;;;8.30;;
15285;SDS011;7744;52.172;10.668;2023-04-08T00:30:49;9.87;;;8.43;;
15285;SDS011;7744;52.172;10.668;2023-04-08T00:33:17;11.63;;;8.70;;
15285;SDS011;7744;52.172;10.668;2023-04-08T00:35:42;8.33;;;7.20;;
15285;SDS011;7744;52.172;10.668;2023-04-08T00:38:08;9.10;;;7.70;;
15285;SDS011;7744;52.172;10.668;2023-04-08T00:40:34;10.00;;;7.97;;
15285;SDS011;7744;52.172;10.668;2023-04-08T00:42:59;10.03;;;8.77;;
15285;SDS011;7744;52.172;10.668;2023-04-08T00:45:25;10.87;;;8.33;;
15285;SDS011;7744;52.172;10.668;2023-04-08T00:47:51;11.50;;;8.80;;
15285;SDS011;7744;52.172;10.668;2023-04-08T00:50:17;10.27;;;7.97;;
15285;SDS011;7744;52.172;10.668;2023-04-08T00:52:43;10.00;;;8.70;;
15285;SDS011;7744;52.172;10.668;2023-04-08T00:55:08;11.53;;;8.73;;
15285;SDS011;7744;52.172;10.668;2023-04-08T00:57:34;14.53;;;10.97;;
15285;SDS011;7744;52.172;10.668;2023-04-08T01:00:00;11.47;;;9.87;;
15285;SDS011;7744;52.172;10.668;2023-04-08T01:02:30;11.57;;;9.57;;
15285;SDS011;7744;52.172;10.668;2023-04-08T01:05:09;12.23;;;9.40;;
15285;SDS011;7744;52.172;10.668;2023-04-08T01:07:54;12.87;;;9.80;;
15285;SDS011;7744;52.172;10.668;2023-04-08T01:10:22;11.20;;;9.77;;
15285;SDS011;7744;52.172;10.668;2023-04-08T01:12:54;11.50;;;8.90;;
15285;SDS011;7744;52.172;10.668;2023-04-08T01:15:21;11.20;;;9.37;;
15285;SDS011;7744;52.172;10.668;2023-04-08T01:17:51;11.73;;;9.37;;
15285;SDS011;7744;52.172;10.668;2023-04-08T01:20:18;10.83;;;9.40;;
15285;SDS011;7744;52.172;10.668;2023-04-08T01:25:27;11.27;;;9.37;;
15285;SDS011;7744;52.172;10.668;2023-04-08T01:27:56;10.67;;;9.03;;
15285;SDS011;7744;52.172;10.668;2023-04-08T01:30:24;11.60;;;9.43;;
15285;SDS011;7744;52.172;10.668;2023-04-08T01:32:51;12.30;;;9.67;;
15285;SDS011;7744;52.172;10.668;2023-04-08T01:35:19;12.83;;;9.47;;
15285;SDS011;7744;52.172;10.668;2023-04-08T01:37:45;12.13;;;10.17;;
15285;SDS011;7744;52.172;10.668;2023-04-08T01:40:16;11.40;;;10.03;;
15285;SDS011;7744;52.172;10.668;2023-04-08T01:42:43;12.20;;;10.40;;
15285;SDS011;7744;52.172;10.668;2023-04-08T01:45:12;11.20;;;9.70;;
15285;SDS011;7744;52.172;10.668;2023-04-08T01:47:39;11.10;;;9.93;;
15285;SDS011;7744;52.172;10.668;2023-04-08T01:50:06;12.27;;;9.63;;
15285;SDS011;7744;52.172;10.668;2023-04-08T01:52:36;10.00;;;9.00;;
15285;SDS011;7744;52.172;10.668;2023-04-08T01:55:03;10.63;;;9.37;;
15285;SDS011;7744;52.172;10.668;2023-04-08T01:57:31;11.57;;;9.47;;
15285;SDS011;7744;52.172;10.668;2023-04-08T01:59:59;10.87;;;8.80;;
15285;SDS011;7744;52.172;10.668;2023-04-08T02:02:28;11.43;;;9.77;;
15285;SDS011;7744;52.172;10.668;2023-04-08T02:04:55;16.53;;;14.50;;
15285;SDS011;7744;52.172;10.668;2023-04-08T02:07:21;18.37;;;15.67;;
15285;SDS011;7744;52.172;10.668;2023-04-08T02:09:46;17.80;;;14.60;;
15285;SDS011;7744;52.172;10.668;2023-04-08T02:12:12;16.30;;;13.83;;
15285;SDS011;7744;52.172;10.668;2023-04-08T02:14:38;19.93;;;15.40;;
15285;SDS011;7744;52.172;10.668;2023-04-08T02:19:43;22.37;;;16.83;;
15285;SDS011;7744;52.172;10.668;2023-04-08T02:22:13;17.83;;;14.37;;
15285;SDS011;7744;52.172;10.668;2023-04-08T02:24:48;18.53;;;16.03;;
15285;SDS011;7744;52.172;10.668;2023-04-08T02:27:14;17.80;;;14.53;;
15285;SDS011;7744;52.172;10.668;2023-04-08T02:29:41;21.27;;;15.93;;
15285;SDS011;7744;52.172;10.668;2023-04-08T02:32:07;20.00;;;15.37;;
15285;SDS011;7744;52.172;10.668;2023-04-08T02:34:36;21.30;;;16.87;;
15285;SDS011;7744;52.172;10.668;2023-04-08T02:37:04;19.07;;;15.50;;
15285;SDS011;7744;52.172;10.668;2023-04-08T02:39:30;20.43;;;14.43;;
15285;SDS011;7744;52.172;10.668;2023-04-08T02:41:57;16.40;;;13.93;;
15285;SDS011;7744;52.172;10.668;2023-04-08T02:44:22;18.73;;;14.27;;
15285;SDS011;7744;52.172;10.668;2023-04-08T02:46:48;22.23;;;15.57;;
15285;SDS011;7744;52.172;10.668;2023-04-08T02:49:14;19.57;;;16.43;;
15285;SDS011;7744;52.172;10.668;2023-04-08T02:51:40;18.40;;;14.60;;
15285;SDS011;7744;52.172;10.668;2023-04-08T02:54:05;18.87;;;14.27;;
15285;SDS011;7744;52.172;10.668;2023-04-08T02:56:31;21.20;;;15.13;;
15285;SDS011;7744;52.172;10.668;2023-04-08T02:58:56;20.77;;;15.67;;
15285;SDS011;7744;52.172;10.668;2023-04-08T03:01:22;21.93;;;16.27;;
15285;SDS011;7744;52.172;10.668;2023-04-08T03:03:47;19.27;;;15.53;;
15285;SDS011;7744;52.172;10.668;2023-04-08T03:06:13;21.90;;;16.23;;
15285;SDS011;7744;52.172;10.668;2023-04-08T03:08:38;23.17;;;17.10;;
15285;SDS011;7744;52.172;10.668;2023-04-08T03:11:04;18.73;;;15.23;;
15285;SDS011;7744;52.172;10.668;2023-04-08T03:13:30;21.70;;;15.30;;
15285;SDS011;7744;52.172;10.668;2023-04-08T03:15:55;21.97;;;15.23;;
15285;SDS011;7744;52.172;10.668;2023-04-08T03:18:21;20.87;;;15.83;;
15285;SDS011;7744;52.172;10.668;2023-04-08T03:20:47;23.07;;;16.17;;
15285;SDS011;7744;52.172;10.668;2023-04-08T03:23:12;20.70;;;16.37;;
15285;SDS011;7744;52.172;10.668;2023-04-08T03:25:38;18.07;;;13.37;;
15285;SDS011;7744;52.172;10.668;2023-04-08T03:28:03;21.90;;;15.33;;
15285;SDS011;7744;52.172;10.668;2023-04-08T03:30:29;18.63;;;14.83;;
15285;SDS011;7744;52.172;10.668;2023-04-08T03:32:55;22.60;;;15.87;;
15285;SDS011;7744;52.172;10.668;2023-04-08T03:35:21;20.03;;;15.00;;
15285;SDS011;7744;52.172;10.668;2023-04-08T03:37:46;19.00;;;14.77;;
15285;SDS011;7744;52.172;10.668;2023-04-08T03:40:12;21.63;;;14.53;;
15285;SDS011;7744;52.172;10.668;2023-04-08T03:42:38;18.40;;;14.67;;
15285;SDS011;7744;52.172;10.668;2023-04-08T03:45:03;16.53;;;13.27;;
15285;SDS011;7744;52.172;10.668;2023-04-08T03:47:29;17.30;;;12.97;;
15285;SDS011;7744;52.172;10.668;2023-04-08T03:49:55;21.17;;;15.47;;
15285;SDS011;7744;52.172;10.668;2023-04-08T03:52:21;20.23;;;15.57;;
15285;SDS011;7744;52.172;10.668;2023-04-08T03:54:47;22.37;;;15.73;;
15285;SDS011;7744;52.172;10.668;2023-04-08T03:57:12;20.43;;;15.33;;
15285;SDS011;7744;52.172;10.668;2023-04-08T03:59:38;19.00;;;15.10;;
15285;SDS011;7744;52.172;10.668;2023-04-08T04:02:05;22.00;;;14.67;;
15285;SDS011;7744;52.172;10.668;2023-04-08T04:04:31;21.40;;;15.23;;
15285;SDS011;7744;52.172;10.668;2023-04-08T04:06:57;20.13;;;14.50;;
15285;SDS011;7744;52.172;10.668;2023-04-08T04:09:23;20.80;;;14.40;;
15285;SDS011;7744;52.172;10.668;2023-04-08T04:11:49;19.50;;;14.27;;
15285;SDS011;7744;52.172;10.668;2023-04-08T04:14:14;20.87;;;14.37;;
15285;SDS011;7744;52.172;10.668;2023-04-08T04:16:40;17.67;;;13.93;;
15285;SDS011;7744;52.172;10.668;2023-04-08T04:19:06;20.77;;;14.23;;
15285;SDS011;7744;52.172;10.668;2023-04-08T04:21:31;20.63;;;14.53;;
15285;SDS011;7744;52.172;10.668;2023-04-08T04:23:57;23.83;;;15.97;;
15285;SDS011;7744;52.172;10.668;2023-04-08T04:26:22;19.80;;;14.13;;
15285;SDS011;7744;52.172;10.668;2023-04-08T04:28:48;22.23;;;14.80;;
15285;SDS011;7744;52.172;10.668;2023-04-08T04:31:17;20.43;;;13.80;;
15285;SDS011;7744;52.172;10.668;2023-04-08T04:33:47;19.90;;;16.15;;
15285;SDS011;7744;52.172;10.668;2023-04-08T04:36:13;21.63;;;16.10;;
15285;SDS011;7744;52.172;10.668;2023-04-08T04:38:39;20.90;;;17.48;;
15285;SDS011;7744;52.172;10.668;2023-04-08T04:41:06;21.50;;;15.50;;
15285;SDS011;7744;52.172;10.668;2023-04-08T04:43:32;20.43;;;15.60;;
15285;SDS011;7744;52.172;10.668;2023-04-08T04:45:58;21.07;;;15.30;;
15285;SDS011;7744;52.172;10.668;2023-04-08T04:48:23;18.97;;;13.80;;
15285;SDS011;7744;52.172;10.668;2023-04-08T04:50:55;19.23;;;13.77;;
15285;SDS011;7744;52.172;10.668;2023-04-08T04:53:21;19.80;;;13.97;;
15285;SDS011;7744;52.172;10.668;2023-04-08T04:55:47;18.93;;;14.07;;
15285;SDS011;7744;52.172;10.668;2023-04-08T04:58:14;21.10;;;14.37;;
15285;SDS011;7744;52.172;10.668;2023-04-08T05:00:39;18.80;;;14.13;;
15285;SDS011;7744;52.172;10.668;2023-04-08T05:03:05;23.37;;;15.77;;
15285;SDS011;7744;52.172;10.668;2023-04-08T05:05:30;20.77;;;14.97;;
15285;SDS011;7744;52.172;10.668;2023-04-08T05:07:56;20.77;;;15.33;;
15285;SDS011;7744;52.172;10.668;2023-04-08T05:10:21;20.63;;;13.80;;
15285;SDS011;7744;52.172;10.668;2023-04-08T05:12:47;22.30;;;13.93;;
15285;SDS011;7744;52.172;10.668;2023-04-08T05:15:13;22.40;;;15.13;;
15285;SDS011;7744;52.172;10.668;2023-04-08T05:17:38;22.13;;;14.30;;
15285;SDS011;7744;52.172;10.668;2023-04-08T05:20:04;20.70;;;14.10;;
15285;SDS011;7744;52.172;10.668;2023-04-08T05:22:30;22.57;;;15.03;;
15285;SDS011;7744;52.172;10.668;2023-04-08T05:24:56;23.93;;;14.83;;
15285;SDS011;7744;52.172;10.668;2023-04-08T05:27:21;21.50;;;15.13;;
15285;SDS011;7744;52.172;10.668;2023-04-08T05:29:47;24.00;;;15.73;;
15285;SDS011;7744;52.172;10.668;2023-04-08T05:32:12;25.07;;;16.17;;
15285;SDS011;7744;52.172;10.668;2023-04-08T05:34:38;29.40;;;16.27;;
15285;SDS011;7744;52.172;10.668;2023-04-08T05:37:04;26.87;;;16.77;;
15285;SDS011;7744;52.172;10.668;2023-04-08T05:39:29;27.03;;;16.40;;
15285;SDS011;7744;52.172;10.668;2023-04-08T05:41:55;24.50;;;15.83;;
15285;SDS011;7744;52.172;10.668;2023-04-08T05:44:20;24.53;;;15.83;;
15285;SDS011;7744;52.172;10.668;2023-04-08T05:46:46;20.70;;;13.90;;
15285;SDS011;7744;52.172;10.668;2023-04-08T05:49:12;22.50;;;14.47;;
15285;SDS011;7744;52.172;10.668;2023-04-08T05:51:37;24.73;;;15.20;;
15285;SDS011;7744;52.172;10.668;2023-04-08T05:54:03;23.93;;;14.97;;
15285;SDS011;7744;52.172;10.668;2023-04-08T05:56:29;23.77;;;13.77;;
15285;SDS011;7744;52.172;10.668;2023-04-08T05:58:56;24.70;;;15.20;;
15285;SDS011;7744;52.172;10.668;2023-04-08T06:01:22;25.03;;;15.43;;
15285;SDS011;7744;52.172;10.668;2023-04-08T06:03:47;23.77;;;15.00;;
15285;SDS011;7744;52.172;10.668;2023-04-08T06:06:13;21.23;;;13.37;;
15285;SDS011;7744;52.172;10.668;2023-04-08T06:08:39;22.10;;;13.87;;
15285;SDS011;7744;52.172;10.668;2023-04-08T06:11:05;23.07;;;14.37;;
15285;SDS011;7744;52.172;10.668;2023-04-08T06:13:31;23.20;;;14.97;;
15285;SDS011;7744;52.172;10.668;2023-04-08T06:15:57;24.03;;;14.40;;
15285;SDS011;7744;52.172;10.668;2023-04-08T06:18:23;26.60;;;14.30;;
15285;SDS011;7744;52.172;10.668;2023-04-08T06:20:49;22.10;;;13.93;;
15285;SDS011;7744;52.172;10.668;2023-04-08T06:23:15;23.03;;;14.13;;
15285;SDS011;7744;52.172;10.668;2023-04-08T06:25:40;19.63;;;13.37;;
15285;SDS011;7744;52.172;10.668;2023-04-08T06:28:06;20.80;;;14.30;;
15285;SDS011;7744;52.172;10.668;2023-04-08T06:30:32;23.30;;;13.93;;
15285;SDS011;7744;52.172;10.668;2023-04-08T06:32:57;22.43;;;13.73;;
15285;SDS011;7744;52.172;10.668;2023-04-08T06:35:23;22.47;;;14.33;;
15285;SDS011;7744;52.172;10.668;2023-04-08T06:37:48;21.23;;;14.30;;
15285;SDS011;7744;52.172;10.668;2023-04-08T06:40:14;21.17;;;13.27;;
15285;SDS011;7744;52.172;10.668;2023-04-08T06:42:40;20.07;;;14.00;;
15285;SDS011;7744;52.172;10.668;2023-04-08T06:45:07;20.73;;;12.87;;
15285;SDS011;7744;52.172;10.668;2023-04-08T06:47:33;20.13;;;13.83;;
15285;SDS011;7744;52.172;10.668;2023-04-08T06:49:58;18.53;;;12.20;;
15285;SDS011;7744;52.172;10.668;2023-04-08T06:52:24;18.47;;;12.20;;
15285;SDS011;7744;52.172;10.668;2023-04-08T06:54:50;19.63;;;12.67;;
15285;SDS011;7744;52.172;10.668;2023-04-08T06:57:15;14.57;;;11.13;;
15285;SDS011;7744;52.172;10.668;2023-04-08T06:59:41;16.63;;;11.57;;
15285;SDS011;7744;52.172;10.668;2023-04-08T07:02:07;16.87;;;11.90;;
15285;SDS011;7744;52.172;10.668;2023-04-08T07:04:33;15.57;;;11.37;;
15285;SDS011;7744;52.172;10.668;2023-04-08T07:06:58;15.83;;;11.63;;
15285;SDS011;7744;52.172;10.668;2023-04-08T07:09:24;17.23;;;11.90;;
15285;SDS011;7744;52.172;10.668;2023-04-08T07:11:50;18.80;;;12.53;;
15285;SDS011;7744;52.172;10.668;2023-04-08T07:14:15;13.30;;;10.13;;
15285;SDS011;7744;52.172;10.668;2023-04-08T07:16:41;14.23;;;10.30;;
15285;SDS011;7744;52.172;10.668;2023-04-08T07:19:06;13.23;;;10.80;;
15285;SDS011;7744;52.172;10.668;2023-04-08T07:21:32;12.30;;;9.60;;
15285;SDS011;7744;52.172;10.668;2023-04-08T07:23:57;10.77;;;9.03;;
15285;SDS011;7744;52.172;10.668;2023-04-08T07:26:23;11.17;;;8.43;;
15285;SDS011;7744;52.172;10.668;2023-04-08T07:28:48;11.70;;;9.53;;
15285;SDS011;7744;52.172;10.668;2023-04-08T07:31:15;11.33;;;8.80;;
15285;SDS011;7744;52.172;10.668;2023-04-08T07:33:42;10.73;;;8.73;;
15285;SDS011;7744;52.172;10.668;2023-04-08T07:36:09;11.97;;;8.90;;
15285;SDS011;7744;52.172;10.668;2023-04-08T07:38:36;11.07;;;8.90;;
15285;SDS011;7744;52.172;10.668;2023-04-08T07:41:02;12.13;;;9.10;;
15285;SDS011;7744;52.172;10.668;2023-04-08T07:43:29;11.67;;;9.80;;
15285;SDS011;7744;52.172;10.668;2023-04-08T07:45:59;13.70;;;10.13;;
15285;SDS011;7744;52.172;10.668;2023-04-08T07:48:27;14.67;;;11.33;;
15285;SDS011;7744;52.172;10.668;2023-04-08T07:50:53;17.77;;;11.10;;
15285;SDS011;7744;52.172;10.668;2023-04-08T07:53:19;16.67;;;12.27;;
15285;SDS011;7744;52.172;10.668;2023-04-08T07:55:45;18.10;;;12.47;;
15285;SDS011;7744;52.172;10.668;2023-04-08T07:58:11;17.43;;;13.03;;
15285;SDS011;7744;52.172;10.668;2023-04-08T08:00:36;16.00;;;13.10;;
15285;SDS011;7744;52.172;10.668;2023-04-08T08:03:02;20.13;;;13.93;;
15285;SDS011;7744;52.172;10.668;2023-04-08T08:05:27;21.37;;;14.57;;
15285;SDS011;7744;52.172;10.668;2023-04-08T08:07:53;16.63;;;13.17;;
15285;SDS011;7744;52.172;10.668;2023-04-08T08:10:18;17.93;;;13.50;;
15285;SDS011;7744;52.172;10.668;2023-04-08T08:12:44;18.30;;;13.33;;
15285;SDS011;7744;52.172;10.668;2023-04-08T08:15:09;16.17;;;12.50;;
15285;SDS011;7744;52.172;10.668;2023-04-08T08:17:35;17.40;;;12.53;;
15285;SDS011;7744;52.172;10.668;2023-04-08T08:20:01;18.13;;;13.47;;
15285;SDS011;7744;52.172;10.668;2023-04-08T08:22:28;18.40;;;13.87;;
15285;SDS011;7744;52.172;10.668;2023-04-08T08:24:54;19.67;;;14.40;;
15285;SDS011;7744;52.172;10.668;2023-04-08T08:27:21;19.17;;;13.80;;
15285;SDS011;7744;52.172;10.668;2023-04-08T08:29:46;18.83;;;13.97;;
15285;SDS011;7744;52.172;10.668;2023-04-08T08:32:12;19.80;;;13.97;;
15285;SDS011;7744;52.172;10.668;2023-04-08T08:34:37;18.17;;;13.13;;
15285;SDS011;7744;52.172;10.668;2023-04-08T08:37:03;19.90;;;13.77;;
15285;SDS011;7744;52.172;10.668;2023-04-08T08:39:28;18.80;;;13.87;;
15285;SDS011;7744;52.172;10.668;2023-04-08T08:41:54;18.87;;;13.90;;
15285;SDS011;7744;52.172;10.668;2023-04-08T08:44:21;19.57;;;13.90;;
15285;SDS011;7744;52.172;10.668;2023-04-08T08:46:47;17.50;;;13.43;;
15285;SDS011;7744;52.172;10.668;2023-04-08T08:49:12;22.23;;;13.37;;
15285;SDS011;7744;52.172;10.668;2023-04-08T08:51:41;19.93;;;14.23;;
15285;SDS011;7744;52.172;10.668;2023-04-08T08:54:10;22.23;;;15.33;;
15285;SDS011;7744;52.172;10.668;2023-04-08T08:56:35;21.37;;;14.20;;
15285;SDS011;7744;52.172;10.668;2023-04-08T08:59:01;26.73;;;16.57;;
15285;SDS011;7744;52.172;10.668;2023-04-08T09:01:30;24.40;;;16.37;;
15285;SDS011;7744;52.172;10.668;2023-04-08T09:04:08;24.60;;;16.63;;
15285;SDS011;7744;52.172;10.668;2023-04-08T09:06:36;24.70;;;16.43;;
15285;SDS011;7744;52.172;10.668;2023-04-08T09:09:02;24.87;;;16.80;;
15285;SDS011;7744;52.172;10.668;2023-04-08T09:11:34;23.83;;;16.40;;
15285;SDS011;7744;52.172;10.668;2023-04-08T09:14:01;23.73;;;17.27;;
15285;SDS011;7744;52.172;10.668;2023-04-08T09:16:27;27.27;;;17.60;;
15285;SDS011;7744;52.172;10.668;2023-04-08T09:18:54;25.20;;;17.23;;
15285;SDS011;7744;52.172;10.668;2023-04-08T09:21:32;24.90;;;17.27;;
15285;SDS011;7744;52.172;10.668;2023-04-08T09:23:59;27.33;;;17.97;;
15285;SDS011;7744;52.172;10.668;2023-04-08T09:26:25;27.93;;;17.27;;
15285;SDS011;7744;52.172;10.668;2023-04-08T09:29:07;22.87;;;17.00;;
15285;SDS011;7744;52.172;10.668;2023-04-08T09:31:34;25.60;;;17.37;;
15285;SDS011;7744;52.172;10.668;2023-04-08T09:34:35;22.57;;;15.47;;
15285;SDS011;7744;52.172;10.668;2023-04-08T09:36:56;21.73;;;15.60;;
15285;SDS011;7744;52.172;10.668;2023-04-08T09:39:22;21.00;;;14.50;;
15285;SDS011;7744;52.172;10.668;2023-04-08T09:41:48;18.53;;;13.80;;
15285;SDS011;7744;52.172;10.668;2023-04-08T09:44:15;19.07;;;13.17;;
15285;SDS011;7744;52.172;10.668;2023-04-08T09:49:20;19.63;;;13.60;;
15285;SDS011;7744;52.172;10.668;2023-04-08T09:52:06;16.80;;;12.50;;
15285;SDS011;7744;52.172;10.668;2023-04-08T10:00:14;31.38;;;15.27;;
15285;SDS011;7744;52.172;10.668;2023-04-08T10:05:22;42.80;;;15.53;;
15285;SDS011;7744;52.172;10.668;2023-04-08T10:07:49;25.47;;;13.23;;
15285;SDS011;7744;52.172;10.668;2023-04-08T10:10:14;26.67;;;13.63;;
15285;SDS011;7744;52.172;10.668;2023-04-08T10:12:40;28.60;;;13.93;;
15285;SDS011;7744;52.172;10.668;2023-04-08T10:15:26;19.90;;;12.70;;
15285;SDS011;7744;52.172;10.668;2023-04-08T10:17:54;20.13;;;13.73;;
15285;SDS011;7744;52.172;10.668;2023-04-08T10:20:44;21.07;;;14.23;;
15285;SDS011;7744;52.172;10.668;2023-04-08T10:23:12;23.33;;;15.60;;
15285;SDS011;7744;52.172;10.668;2023-04-08T10:35:52;23.83;;;15.13;;
15285;SDS011;7744;52.172;10.668;2023-04-08T10:38:19;22.43;;;15.23;;
15285;SDS011;7744;52.172;10.668;2023-04-08T10:40:46;19.27;;;14.07;;
15285;SDS011;7744;52.172;10.668;2023-04-08T10:43:13;18.27;;;13.00;;
15285;SDS011;7744;52.172;10.668;2023-04-08T10:45:40;18.00;;;12.97;;
15285;SDS011;7744;52.172;10.668;2023-04-08T10:50:42;14.77;;;11.47;;
15285;SDS011;7744;52.172;10.668;2023-04-08T10:53:08;14.23;;;10.93;;
15285;SDS011;7744;52.172;10.668;2023-04-08T10:55:35;13.60;;;10.77;;
15285;SDS011;7744;52.172;10.668;2023-04-08T10:58:07;17.77;;;11.97;;
15285;SDS011;7744;52.172;10.668;2023-04-08T11:00:38;13.07;;;10.03;;
15285;SDS011;7744;52.172;10.668;2023-04-08T11:03:08;18.10;;;11.80;;
15285;SDS011;7744;52.172;10.668;2023-04-08T11:05:35;13.07;;;10.27;;
15285;SDS011;7744;52.172;10.668;2023-04-08T11:08:03;14.07;;;9.70;;
15285;SDS011;7744;52.172;10.668;2023-04-08T11:10:30;11.87;;;9.87;;
15285;SDS011;7744;52.172;10.668;2023-04-08T11:13:00;14.63;;;11.53;;
15285;SDS011;7744;52.172;10.668;2023-04-08T11:15:27;17.37;;;13.03;;
15285;SDS011;7744;52.172;10.668;2023-04-08T11:17:54;19.30;;;13.30;;
15285;SDS011;7744;52.172;10.668;2023-04-08T11:20:20;15.27;;;11.47;;
15285;SDS011;7744;52.172;10.668;2023-04-08T11:22:47;14.63;;;11.03;;
15285;SDS011;7744;52.172;10.668;2023-04-08T11:25:12;13.37;;;10.23;;
15285;SDS011;7744;52.172;10.668;2023-04-08T11:27:38;11.97;;;10.17;;
15285;SDS011;7744;52.172;10.668;2023-04-08T11:30:05;14.37;;;10.90;;
15285;SDS011;7744;52.172;10.668;2023-04-08T11:32:32;13.30;;;10.00;;
15285;SDS011;7744;52.172;10.668;2023-04-08T11:34:59;11.83;;;10.10;;
15285;SDS011;7744;52.172;10.668;2023-04-08T11:37:26;18.13;;;13.07;;
15285;SDS011;7744;52.172;10.668;2023-04-08T11:40:01;19.33;;;13.83;;
15285;SDS011;7744;52.172;10.668;2023-04-08T11:42:27;19.77;;;14.37;;
15285;SDS011;7744;52.172;10.668;2023-04-08T11:44:53;18.83;;;13.83;;
15285;SDS011;7744;52.172;10.668;2023-04-08T11:47:19;19.77;;;14.47;;
15285;SDS011;7744;52.172;10.668;2023-04-08T11:49:45;21.03;;;15.60;;
15285;SDS011;7744;52.172;10.668;2023-04-08T11:52:11;21.60;;;15.10;;
15285;SDS011;7744;52.172;10.668;2023-04-08T11:54:41;19.20;;;14.07;;
15285;SDS011;7744;52.172;10.668;2023-04-08T11:57:07;19.37;;;13.83;;
15285;SDS011;7744;52.172;10.668;2023-04-08T11:59:36;19.40;;;14.07;;
15285;SDS011;7744;52.172;10.668;2023-04-08T12:02:02;19.23;;;14.03;;
15285;SDS011;7744;52.172;10.668;2023-04-08T12:04:28;20.27;;;14.73;;
15285;SDS011;7744;52.172;10.668;2023-04-08T12:06:54;20.63;;;14.10;;
15285;SDS011;7744;52.172;10.668;2023-04-08T12:09:20;19.77;;;15.47;;
15285;SDS011;7744;52.172;10.668;2023-04-08T12:11:46;19.83;;;15.00;;
15285;SDS011;7744;52.172;10.668;2023-04-08T12:14:12;17.70;;;14.10;;
15285;SDS011;7744;52.172;10.668;2023-04-08T12:16:38;19.77;;;14.50;;
15285;SDS011;7744;52.172;10.668;2023-04-08T12:19:04;21.77;;;14.40;;
15285;SDS011;7744;52.172;10.668;2023-04-08T12:21:29;18.50;;;13.93;;
15285;SDS011;7744;52.172;10.668;2023-04-08T12:23:56;18.53;;;14.07;;
15285;SDS011;7744;52.172;10.668;2023-04-08T12:26:22;18.33;;;13.47;;
15285;SDS011;7744;52.172;10.668;2023-04-08T12:28:48;16.20;;;13.10;;
15285;SDS011;7744;52.172;10.668;2023-04-08T12:31:13;18.00;;;14.00;;
15285;SDS011;7744;52.172;10.668;2023-04-08T12:33:39;20.60;;;14.80;;
15285;SDS011;7744;52.172;10.668;2023-04-08T12:36:05;20.47;;;15.50;;
15285;SDS011;7744;52.172;10.668;2023-04-08T12:38:31;20.30;;;14.77;;
15285;SDS011;7744;52.172;10.668;2023-04-08T12:40:57;20.30;;;15.90;;
15285;SDS011;7744;52.172;10.668;2023-04-08T12:43:23;23.57;;;16.30;;
15285;SDS011;7744;52.172;10.668;2023-04-08T12:45:49;19.37;;;15.47;;
15285;SDS011;7744;52.172;10.668;2023-04-08T12:48:15;21.60;;;17.00;;
15285;SDS011;7744;52.172;10.668;2023-04-08T12:50:41;23.17;;;17.53;;
15285;SDS011;7744;52.172;10.668;2023-04-08T12:53:07;23.47;;;16.47;;
15285;SDS011;7744;52.172;10.668;2023-04-08T12:55:33;20.80;;;15.90;;
15285;SDS011;7744;52.172;10.668;2023-04-08T12:57:58;19.97;;;15.07;;
15285;SDS011;7744;52.172;10.668;2023-04-08T13:00:24;20.83;;;16.27;;
15285;SDS011;7744;52.172;10.668;2023-04-08T13:02:50;19.37;;;15.37;;
15285;SDS011;7744;52.172;10.668;2023-04-08T13:05:16;21.50;;;14.80;;
15285;SDS011;7744;52.172;10.668;2023-04-08T13:07:41;22.00;;;14.17;;
15285;SDS011;7744;52.172;10.668;2023-04-08T13:10:07;25.77;;;15.63;;
15285;SDS011;7744;52.172;10.668;2023-04-08T13:12:33;27.70;;;14.93;;
15285;SDS011;7744;52.172;10.668;2023-04-08T13:14:58;20.70;;;14.57;;
15285;SDS011;7744;52.172;10.668;2023-04-08T13:17:25;21.70;;;17.37;;
15285;SDS011;7744;52.172;10.668;2023-04-08T13:19:51;32.33;;;26.07;;
15285;SDS011;7744;52.172;10.668;2023-04-08T13:22:17;50.00;;;45.17;;
15285;SDS011;7744;52.172;10.668;2023-04-08T13:24:42;22.60;;;20.23;;
15285;SDS011;7744;52.172;10.668;2023-04-08T13:27:08;16.00;;;13.43;;
15285;SDS011;7744;52.172;10.668;2023-04-08T13:29:33;28.83;;;25.83;;
15285;SDS011;7744;52.172;10.668;2023-04-08T13:31:59;26.83;;;24.00;;
15285;SDS011;7744;52.172;10.668;2023-04-08T13:34:25;15.50;;;13.77;;
15285;SDS011;7744;52.172;10.668;2023-04-08T13:36:51;16.80;;;13.00;;
15285;SDS011;7744;52.172;10.668;2023-04-08T13:39:17;18.02;;;14.98;;
15285;SDS011;7744;52.172;10.668;2023-04-08T13:41:42;17.67;;;14.90;;
15285;SDS011;7744;52.172;10.668;2023-04-08T13:44:08;23.17;;;15.37;;
15285;SDS011;7744;52.172;10.668;2023-04-08T13:46:34;17.17;;;13.90;;
15285;SDS011;7744;52.172;10.668;2023-04-08T13:49:00;18.07;;;14.87;;
15285;SDS011;7744;52.172;10.668;2023-04-08T13:51:27;18.23;;;15.10;;
15285;SDS011;7744;52.172;10.668;2023-04-08T13:53:52;18.80;;;14.97;;
15285;SDS011;7744;52.172;10.668;2023-04-08T13:56:18;15.27;;;12.33;;
15285;SDS011;7744;52.172;10.668;2023-04-08T13:58:44;15.90;;;13.10;;
15285;SDS011;7744;52.172;10.668;2023-04-08T14:01:10;14.50;;;11.90;;
15285;SDS011;7744;52.172;10.668;2023-04-08T14:03:36;16.40;;;13.63;;
15285;SDS011;7744;52.172;10.668;2023-04-08T14:06:02;14.80;;;12.90;;
15285;SDS011;7744;52.172;10.668;2023-04-08T14:08:27;17.40;;;13.10;;
15285;SDS011;7744;52.172;10.668;2023-04-08T14:10:56;14.33;;;11.77;;
15285;SDS011;7744;52.172;10.668;2023-04-08T14:13:21;15.50;;;12.77;;
15285;SDS011;7744;52.172;10.668;2023-04-08T14:15:47;15.93;;;12.23;;
15285;SDS011;7744;52.172;10.668;2023-04-08T14:18:13;14.77;;;12.10;;
15285;SDS011;7744;52.172;10.668;2023-04-08T14:20:41;16.87;;;14.47;;
15285;SDS011;7744;52.172;10.668;2023-04-08T14:23:07;21.00;;;14.23;;
15285;SDS011;7744;52.172;10.668;2023-04-08T14:25:33;13.30;;;10.90;;
15285;SDS011;7744;52.172;10.668;2023-04-08T14:27:58;15.33;;;13.30;;
15285;SDS011;7744;52.172;10.668;2023-04-08T14:30:24;15.07;;;11.97;;
15285;SDS011;7744;52.172;10.668;2023-04-08T14:32:50;14.07;;;11.47;;
15285;SDS011;7744;52.172;10.668;2023-04-08T14:35:16;13.03;;;11.13;;
15285;SDS011;7744;52.172;10.668;2023-04-08T14:37:42;13.17;;;10.73;;
15285;SDS011;7744;52.172;10.668;2023-04-08T14:40:08;12.97;;;11.50;;
15285;SDS011;7744;52.172;10.668;2023-04-08T14:42:34;12.97;;;11.00;;
15285;SDS011;7744;52.172;10.668;2023-04-08T14:45:00;12.83;;;11.40;;
15285;SDS011;7744;52.172;10.668;2023-04-08T14:47:27;11.77;;;10.50;;
15285;SDS011;7744;52.172;10.668;2023-04-08T14:49:52;12.27;;;10.97;;